Time;durP1;ratioP1;P1;durP2;ratioP2;P2;SDS_P1;SDS_P2;PMS_P1;PMS_P2;Temp;Humidity;BMP_temperature;BMP_pressure;BME280_temperature;BME280_humidity;BME280_pressure;Samples;Min_cycle;Max_cycle;Signal;HPM_P1;HPM_P2
2022/10/16 00:02:17;;;;;;;5.80;5.37;;;;;;;;;;5076019;28;20189;-63
2022/10/16 00:04:44;;;;;;;5.15;3.95;;;;;;;;;;5075965;28;20542;-63
2022/10/16 00:07:11;;;;;;;5.97;5.10;;;;;;;;;;5075959;28;20296;-63
2022/10/16 00:09:38;;;;;;;5.05;4.68;;;;;;;;;;5075770;28;20448;-63
2022/10/16 00:12:06;;;;;;;5.37;4.97;;;;;;;;;;5076051;28;20201;-63
2022/10/16 00:14:33;;;;;;;3.80;3.60;;;;;;;;;;5075680;28;20942;-63
2022/10/16 00:17:00;;;;;;;4.00;3.70;;;;;;;;;;5075780;28;20443;-63
2022/10/16 00:19:27;;;;;;;4.53;4.23;;;;;;;;;;5075526;28;20988;-63
2022/10/16 00:21:54;;;;;;;5.93;3.83;;;;;;;;;;5075572;28;20451;-63
2022/10/16 00:24:21;;;;;;;4.20;3.80;;;;;;;;;;5075451;28;20538;-63
2022/10/16 00:26:50;;;;;;;4.70;4.37;;;;;;;;;;5075747;28;20869;-63
2022/10/16 00:29:19;;;;;;;4.43;3.77;;;;;;;;;;5075604;28;20447;-63
2022/10/16 00:31:45;;;;;;;9.03;3.77;;;;;;;;;;5075574;28;20545;-63
2022/10/16 00:34:12;;;;;;;3.33;3.13;;;;;;;;;;5075435;28;20541;-63
2022/10/16 00:36:39;;;;;;;3.80;3.50;;;;;;;;;;5075310;28;20477;-63
2022/10/16 00:39:06;;;;;;;4.07;3.77;;;;;;;;;;5075530;28;20550;-63
2022/10/16 00:41:34;;;;;;;3.43;3.13;;;;;;;;;;5075341;28;20562;-63
2022/10/16 00:44:02;;;;;;;4.30;4.00;;;;;;;;;;5075151;28;21030;-63
2022/10/16 00:46:33;;;;;;;3.37;3.07;;;;;;;;;;5075184;28;20857;-63
2022/10/16 00:49:02;;;;;;;3.53;3.33;;;;;;;;;;5074462;28;20579;-63
2022/10/16 00:51:35;;;;;;;4.15;3.10;;;;;;;;;;5074962;28;20551;-62
2022/10/16 00:54:03;;;;;;;2.80;2.60;;;;;;;;;;5075223;28;20200;-63
2022/10/16 00:56:30;;;;;;;3.50;3.30;;;;;;;;;;5075074;28;20487;-63
2022/10/16 00:58:57;;;;;;;4.77;2.90;;;;;;;;;;5074967;28;20444;-63
2022/10/16 01:01:24;;;;;;;2.90;2.65;;;;;;;;;;5074825;28;20479;-63
2022/10/16 01:03:52;;;;;;;2.90;2.70;;;;;;;;;;5074724;28;20189;-63
2022/10/16 01:06:24;;;;;;;2.57;2.37;;;;;;;;;;5074906;28;20192;-63
2022/10/16 01:08:56;;;;;;;2.77;2.57;;;;;;;;;;5074860;28;20455;-63
2022/10/16 01:11:27;;;;;;;5.00;2.83;;;;;;;;;;5074782;28;20447;-63
2022/10/16 01:13:55;;;;;;;2.70;2.50;;;;;;;;;;5074729;28;20554;-63
2022/10/16 01:16:26;;;;;;;2.10;2.00;;;;;;;;;;5074463;28;20447;-63
2022/10/16 01:18:58;;;;;;;2.50;2.30;;;;;;;;;;5074703;28;20810;-63
2022/10/16 01:21:28;;;;;;;2.60;2.40;;;;;;;;;;5074565;28;20570;-63
2022/10/16 01:24:03;;;;;;;4.27;2.87;;;;;;;;;;5074367;28;20976;-63
2022/10/16 01:26:37;;;;;;;2.83;2.63;;;;;;;;;;5074416;28;20885;-63
2022/10/16 01:29:09;;;;;;;2.60;2.40;;;;;;;;;;5074258;28;20851;-63
2022/10/16 01:31:37;;;;;;;2.53;2.10;;;;;;;;;;5074505;28;20247;-63
2022/10/16 01:34:06;;;;;;;2.30;2.20;;;;;;;;;;5074248;28;20810;-63
2022/10/16 01:36:37;;;;;;;2.73;2.53;;;;;;;;;;5074205;28;20448;-63
2022/10/16 01:39:04;;;;;;;2.47;2.23;;;;;;;;;;5074103;28;20451;-63
2022/10/16 01:41:33;;;;;;;2.03;1.90;;;;;;;;;;5073851;28;20483;-63
2022/10/16 01:44:03;;;;;;;2.47;2.37;;;;;;;;;;5074175;28;20965;-63
2022/10/16 01:46:32;;;;;;;2.27;2.17;;;;;;;;;;5074119;28;20483;-63
2022/10/16 01:49:00;;;;;;;2.13;2.03;;;;;;;;;;5073694;28;20479;-63
2022/10/16 01:51:27;;;;;;;3.20;2.20;;;;;;;;;;5073875;28;20448;-63
2022/10/16 01:53:55;;;;;;;2.73;2.53;;;;;;;;;;5073692;28;20444;-63
2022/10/16 01:56:24;;;;;;;2.10;2.00;;;;;;;;;;5073940;28;20809;-63
2022/10/16 01:58:52;;;;;;;2.27;2.10;;;;;;;;;;5056014;28;20444;-63
2022/10/16 02:01:20;;;;;;;3.23;2.63;;;;;;;;;;5072806;28;20909;-63
2022/10/16 02:03:51;;;;;;;2.43;2.20;;;;;;;;;;5073771;28;21016;-63
2022/10/16 02:06:18;;;;;;;4.20;2.10;;;;;;;;;;5073580;28;20538;-63
2022/10/16 02:08:45;;;;;;;2.28;2.17;;;;;;;;;;5073767;28;20439;-63
2022/10/16 02:11:12;;;;;;;2.17;1.97;;;;;;;;;;5073708;28;20220;-63
2022/10/16 02:13:42;;;;;;;2.17;1.97;;;;;;;;;;5073610;28;20455;-63
2022/10/16 02:16:09;;;;;;;2.50;2.40;;;;;;;;;;5073492;28;20447;-63
2022/10/16 02:18:36;;;;;;;3.00;2.80;;;;;;;;;;5073406;28;20534;-63
2022/10/16 02:21:08;;;;;;;2.13;2.03;;;;;;;;;;5073274;28;20506;-63
2022/10/16 02:23:38;;;;;;;2.20;2.10;;;;;;;;;;5073536;28;20185;-63
2022/10/16 02:26:08;;;;;;;2.27;2.07;;;;;;;;;;5073456;28;20444;-63
2022/10/16 02:28:39;;;;;;;2.07;1.87;;;;;;;;;;5073330;28;20489;-63
2022/10/16 02:31:08;;;;;;;2.40;2.20;;;;;;;;;;5073306;28;20529;-63
2022/10/16 02:33:38;;;;;;;2.03;1.93;;;;;;;;;;5073148;28;20444;-63
2022/10/16 02:36:06;;;;;;;2.37;2.20;;;;;;;;;;5073136;28;20448;-63
2022/10/16 02:38:33;;;;;;;1.80;1.70;;;;;;;;;;5073276;28;20842;-63
2022/10/16 02:41:00;;;;;;;2.23;1.83;;;;;;;;;;5073251;28;20834;-63
2022/10/16 02:43:27;;;;;;;1.90;1.80;;;;;;;;;;5073108;28;20451;-63
2022/10/16 02:45:54;;;;;;;2.07;1.90;;;;;;;;;;5073005;28;20895;-63
2022/10/16 02:48:21;;;;;;;2.10;1.90;;;;;;;;;;5072949;28;20574;-63
2022/10/16 02:50:48;;;;;;;1.70;1.60;;;;;;;;;;5073222;28;20279;-63
2022/10/16 02:53:16;;;;;;;3.53;1.70;;;;;;;;;;5073039;28;20856;-63
2022/10/16 02:55:43;;;;;;;1.83;1.73;;;;;;;;;;5073017;28;20448;-63
2022/10/16 02:58:10;;;;;;;2.40;2.27;;;;;;;;;;5072910;28;20538;-63
2022/10/16 03:00:37;;;;;;;2.10;2.00;;;;;;;;;;5072812;28;20487;-63
2022/10/16 03:03:04;;;;;;;1.95;1.85;;;;;;;;;;5073045;28;20876;-63
2022/10/16 03:05:31;;;;;;;2.10;2.00;;;;;;;;;;5073005;28;20576;-63
2022/10/16 03:08:00;;;;;;;1.75;1.50;;;;;;;;;;5072952;28;20447;-63
2022/10/16 03:10:28;;;;;;;2.13;2.03;;;;;;;;;;5072869;28;20208;-63
2022/10/16 03:12:55;;;;;;;2.50;1.70;;;;;;;;;;5076365;28;20528;-63
2022/10/16 03:15:22;;;;;;;1.67;1.57;;;;;;;;;;5076851;28;20454;-63
2022/10/16 03:17:49;;;;;;;1.50;1.40;;;;;;;;;;5077007;28;20546;-63
2022/10/16 03:20:16;;;;;;;1.70;1.60;;;;;;;;;;5076857;28;20550;-63
2022/10/16 03:22:42;;;;;;;1.70;1.60;;;;;;;;;;5076806;28;20494;-63
2022/10/16 03:25:09;;;;;;;2.00;1.90;;;;;;;;;;5076648;28;20443;-63
2022/10/16 03:27:38;;;;;;;1.53;1.43;;;;;;;;;;5076749;28;20534;-63
2022/10/16 03:30:05;;;;;;;1.93;1.83;;;;;;;;;;5076624;28;20454;-63
2022/10/16 03:32:32;;;;;;;1.83;1.50;;;;;;;;;;5076724;28;20538;-63
2022/10/16 03:34:59;;;;;;;1.60;1.50;;;;;;;;;;5076626;28;20543;-63
2022/10/16 03:37:26;;;;;;;1.80;1.70;;;;;;;;;;5076566;28;20828;-63
2022/10/16 03:39:52;;;;;;;2.17;1.70;;;;;;;;;;5076378;28;20471;-63
2022/10/16 03:42:19;;;;;;;2.60;1.70;;;;;;;;;;5076198;28;20482;-63
2022/10/16 03:44:48;;;;;;;2.00;1.90;;;;;;;;;;5076501;28;20811;-64
2022/10/16 03:47:15;;;;;;;3.47;1.80;;;;;;;;;;5076189;28;20534;-63
2022/10/16 03:49:41;;;;;;;1.40;1.30;;;;;;;;;;5076366;28;20453;-63
2022/10/16 03:52:08;;;;;;;5.17;2.03;;;;;;;;;;5076208;28;20443;-63
2022/10/16 03:54:35;;;;;;;1.73;1.53;;;;;;;;;;5076127;28;20938;-63
2022/10/16 03:57:02;;;;;;;1.43;1.33;;;;;;;;;;5075987;28;20443;-63
2022/10/16 03:59:29;;;;;;;1.73;1.63;;;;;;;;;;5076134;28;20529;-63
2022/10/16 04:01:57;;;;;;;1.63;1.53;;;;;;;;;;5076065;28;20486;-63
2022/10/16 04:04:25;;;;;;;5.80;1.73;;;;;;;;;;5075978;28;20542;-63
2022/10/16 04:06:52;;;;;;;2.63;2.43;;;;;;;;;;5075898;28;20542;-63
2022/10/16 04:09:18;;;;;;;2.00;1.90;;;;;;;;;;5075802;28;20447;-63
2022/10/16 04:11:45;;;;;;;1.80;1.70;;;;;;;;;;5076051;28;20801;-63
2022/10/16 04:14:12;;;;;;;2.03;1.93;;;;;;;;;;5075891;28;20454;-63
2022/10/16 04:16:39;;;;;;;1.70;1.60;;;;;;;;;;5075850;28;20542;-63
2022/10/16 04:19:07;;;;;;;1.73;1.63;;;;;;;;;;5075791;28;20557;-63
2022/10/16 04:21:34;;;;;;;1.83;1.47;;;;;;;;;;5075547;28;20307;-63
2022/10/16 04:24:01;;;;;;;1.80;1.70;;;;;;;;;;5074504;28;20459;-63
2022/10/16 04:26:28;;;;;;;1.80;1.70;;;;;;;;;;5075741;28;20899;-63
2022/10/16 04:28:55;;;;;;;1.90;1.80;;;;;;;;;;5075516;28;20540;-63
2022/10/16 04:31:22;;;;;;;1.70;1.60;;;;;;;;;;5075753;28;20448;-63
2022/10/16 04:33:49;;;;;;;1.60;1.50;;;;;;;;;;5075710;28;20448;-63
2022/10/16 04:36:17;;;;;;;1.50;1.40;;;;;;;;;;5075555;28;20535;-63
2022/10/16 04:38:44;;;;;;;1.60;1.50;;;;;;;;;;5075427;28;20887;-63
2022/10/16 04:41:11;;;;;;;1.67;1.57;;;;;;;;;;5075411;28;20515;-63
2022/10/16 04:43:38;;;;;;;1.40;1.30;;;;;;;;;;5075391;28;20532;-63
2022/10/16 04:46:05;;;;;;;2.00;1.77;;;;;;;;;;5075238;28;20448;-63
2022/10/16 04:48:32;;;;;;;1.90;1.80;;;;;;;;;;5074901;28;20472;-63
2022/10/16 04:50:59;;;;;;;1.43;1.33;;;;;;;;;;5075053;28;20547;-63
2022/10/16 04:53:27;;;;;;;1.60;1.50;;;;;;;;;;5075208;28;20547;-63
2022/10/16 04:55:54;;;;;;;1.70;1.60;;;;;;;;;;5075165;28;20280;-63
2022/10/16 04:58:21;;;;;;;1.83;1.67;;;;;;;;;;5075030;28;20940;-63
2022/10/16 05:00:48;;;;;;;2.37;1.87;;;;;;;;;;5074877;28;20551;-63
2022/10/16 05:03:15;;;;;;;1.70;1.60;;;;;;;;;;5074898;28;20448;-63
2022/10/16 05:05:44;;;;;;;2.13;1.60;;;;;;;;;;5074753;28;20228;-63
2022/10/16 05:08:11;;;;;;;1.53;1.43;;;;;;;;;;5075003;28;20443;-63
2022/10/16 05:10:39;;;;;;;2.37;1.80;;;;;;;;;;5074817;28;20444;-63
2022/10/16 05:13:06;;;;;;;1.70;1.60;;;;;;;;;;5074762;28;20457;-63
2022/10/16 05:15:33;;;;;;;1.73;1.53;;;;;;;;;;5074647;28;20496;-63
2022/10/16 05:18:00;;;;;;;1.73;1.63;;;;;;;;;;5074563;28;20879;-63
2022/10/16 05:20:27;;;;;;;3.77;1.57;;;;;;;;;;5074818;28;20446;-63
2022/10/16 05:22:54;;;;;;;2.57;1.53;;;;;;;;;;5074502;28;20480;-63
2022/10/16 05:25:21;;;;;;;1.80;1.70;;;;;;;;;;5074580;28;20447;-63
2022/10/16 05:27:50;;;;;;;1.50;1.40;;;;;;;;;;5074444;28;20452;-63
2022/10/16 05:30:17;;;;;;;1.90;1.80;;;;;;;;;;5074355;28;20947;-63
2022/10/16 05:32:47;;;;;;;2.13;1.80;;;;;;;;;;5074192;28;20542;-63
2022/10/16 05:35:14;;;;;;;1.80;1.70;;;;;;;;;;5074016;28;21018;-63
2022/10/16 05:37:41;;;;;;;4.27;1.50;;;;;;;;;;5074282;28;20554;-63
2022/10/16 05:40:09;;;;;;;1.93;1.83;;;;;;;;;;5074203;28;20453;-63
2022/10/16 05:42:37;;;;;;;1.67;1.57;;;;;;;;;;5074034;28;20528;-63
2022/10/16 05:45:05;;;;;;;1.80;1.70;;;;;;;;;;5073876;28;20454;-63
2022/10/16 05:47:32;;;;;;;1.67;1.50;;;;;;;;;;5073982;28;20482;-63
2022/10/16 05:49:59;;;;;;;2.03;1.83;;;;;;;;;;5074068;28;20540;-63
2022/10/16 05:52:26;;;;;;;3.08;1.60;;;;;;;;;;5074084;28;20455;-63
2022/10/16 05:54:53;;;;;;;1.57;1.47;;;;;;;;;;5073900;28;20272;-63
2022/10/16 05:57:20;;;;;;;1.70;1.60;;;;;;;;;;5073795;28;20505;-63
2022/10/16 05:59:47;;;;;;;4.20;1.87;;;;;;;;;;5073715;28;20502;-63
2022/10/16 06:02:16;;;;;;;2.23;1.70;;;;;;;;;;5073793;28;20489;-63
2022/10/16 06:04:42;;;;;;;2.03;1.40;;;;;;;;;;5073813;28;20451;-63
2022/10/16 06:07:09;;;;;;;1.70;1.60;;;;;;;;;;5073686;28;20818;-63
2022/10/16 06:09:36;;;;;;;1.87;1.60;;;;;;;;;;5073575;28;20535;-63
2022/10/16 06:12:03;;;;;;;1.63;1.53;;;;;;;;;;5073516;28;20847;-64
2022/10/16 06:14:30;;;;;;;1.47;1.37;;;;;;;;;;5073403;28;20546;-63
2022/10/16 06:16:57;;;;;;;1.67;1.57;;;;;;;;;;5073613;28;20534;-63
2022/10/16 06:19:25;;;;;;;1.70;1.60;;;;;;;;;;5073500;28;20455;-63
2022/10/16 06:21:52;;;;;;;2.20;2.03;;;;;;;;;;5073326;28;20212;-63
2022/10/16 06:24:19;;;;;;;2.13;2.00;;;;;;;;;;5073382;28;20883;-63
2022/10/16 06:26:46;;;;;;;2.50;2.30;;;;;;;;;;5073189;28;20452;-63
2022/10/16 06:29:13;;;;;;;2.30;2.20;;;;;;;;;;5073411;28;20542;-63
2022/10/16 06:31:40;;;;;;;2.30;2.10;;;;;;;;;;5073409;28;20465;-63
2022/10/16 06:34:09;;;;;;;2.28;2.17;;;;;;;;;;5073237;28;20531;-63
2022/10/16 06:36:37;;;;;;;2.67;2.57;;;;;;;;;;5073179;28;20556;-63
2022/10/16 06:39:04;;;;;;;2.50;2.30;;;;;;;;;;5073110;28;20538;-63
2022/10/16 06:41:31;;;;;;;2.20;2.10;;;;;;;;;;5072969;28;20467;-63
2022/10/16 06:43:58;;;;;;;2.60;2.40;;;;;;;;;;5073209;28;20566;-63
2022/10/16 06:46:25;;;;;;;2.57;2.47;;;;;;;;;;5072688;28;20537;-63
2022/10/16 06:48:53;;;;;;;2.80;2.60;;;;;;;;;;5072828;28;20570;-63
2022/10/16 06:51:20;;;;;;;2.03;1.93;;;;;;;;;;5073075;28;21021;-63
2022/10/16 06:53:49;;;;;;;2.27;2.07;;;;;;;;;;5072980;28;20543;-63
2022/10/16 06:56:17;;;;;;;1.90;1.80;;;;;;;;;;5072892;28;21036;-63
2022/10/16 06:58:44;;;;;;;2.75;1.80;;;;;;;;;;5072984;28;20554;-63
2022/10/16 07:01:12;;;;;;;1.70;1.60;;;;;;;;;;5073299;28;20189;-63
2022/10/16 07:03:39;;;;;;;2.00;1.90;;;;;;;;;;5072836;28;20569;-63
2022/10/16 07:06:07;;;;;;;2.90;2.80;;;;;;;;;;5072833;28;20851;-63
2022/10/16 07:08:34;;;;;;;2.83;2.63;;;;;;;;;;5072748;28;20446;-63
2022/10/16 07:11:03;;;;;;;3.17;2.00;;;;;;;;;;5072891;28;20447;-63
2022/10/16 07:13:30;;;;;;;1.80;1.70;;;;;;;;;;5072628;28;20951;-63
2022/10/16 07:15:57;;;;;;;2.47;1.77;;;;;;;;;;5072913;28;20447;-63
2022/10/16 07:18:26;;;;;;;3.13;2.00;;;;;;;;;;5072707;28;20863;-63
2022/10/16 07:20:53;;;;;;;5.23;2.10;;;;;;;;;;5072722;28;20861;-63
2022/10/16 07:23:20;;;;;;;1.97;1.60;;;;;;;;;;5072508;28;21019;-63
2022/10/16 07:25:47;;;;;;;2.20;1.50;;;;;;;;;;5072735;28;20543;-63
2022/10/16 07:28:15;;;;;;;1.60;1.50;;;;;;;;;;5072722;28;20810;-63
2022/10/16 07:30:42;;;;;;;1.60;1.43;;;;;;;;;;5072640;28;20486;-63
2022/10/16 07:33:09;;;;;;;3.80;1.97;;;;;;;;;;5072524;28;20530;-63
2022/10/16 07:35:36;;;;;;;4.60;1.67;;;;;;;;;;5072449;28;20538;-63
2022/10/16 07:38:03;;;;;;;1.93;1.50;;;;;;;;;;5072681;28;20450;-63
2022/10/16 07:40:30;;;;;;;1.33;1.23;;;;;;;;;;5072780;28;20457;-63
2022/10/16 07:42:57;;;;;;;1.70;1.43;;;;;;;;;;5072460;28;20491;-63
2022/10/16 07:45:25;;;;;;;1.90;1.80;;;;;;;;;;5072485;28;20459;-63
2022/10/16 07:47:52;;;;;;;1.67;1.55;;;;;;;;;;5072192;28;20312;-63
2022/10/16 07:50:19;;;;;;;1.73;1.43;;;;;;;;;;5072303;28;20227;-63
2022/10/16 07:52:46;;;;;;;1.53;1.33;;;;;;;;;;5072501;28;20810;-63
2022/10/16 07:55:13;;;;;;;1.40;1.30;;;;;;;;;;5072413;28;20444;-63
2022/10/16 07:57:40;;;;;;;4.50;1.53;;;;;;;;;;5072456;28;20882;-63
2022/10/16 08:00:07;;;;;;;1.67;1.57;;;;;;;;;;5075823;28;20454;-63
2022/10/16 08:02:35;;;;;;;1.57;1.47;;;;;;;;;;5075820;28;20485;-63
2022/10/16 08:05:02;;;;;;;1.63;1.53;;;;;;;;;;5075888;28;20964;-63
2022/10/16 08:07:29;;;;;;;1.93;1.70;;;;;;;;;;5076007;28;20454;-63
2022/10/16 08:09:58;;;;;;;2.90;1.90;;;;;;;;;;5076003;28;20456;-63
2022/10/16 08:12:25;;;;;;;1.87;1.77;;;;;;;;;;5075756;28;20957;-63
2022/10/16 08:14:51;;;;;;;2.20;2.10;;;;;;;;;;5076293;28;20497;-63
2022/10/16 08:17:18;;;;;;;2.00;1.33;;;;;;;;;;5075442;28;20814;-63
2022/10/16 08:19:47;;;;;;;3.10;1.55;;;;;;;;;;5075743;28;20454;-63
2022/10/16 08:22:14;;;;;;;1.97;1.77;;;;;;;;;;5075593;28;20213;-63
2022/10/16 08:24:41;;;;;;;2.37;1.60;;;;;;;;;;5075517;28;21042;-63
2022/10/16 08:27:10;;;;;;;1.83;1.73;;;;;;;;;;5075498;28;20931;-63
2022/10/16 08:29:38;;;;;;;2.30;1.97;;;;;;;;;;5075370;28;20542;-63
2022/10/16 08:32:05;;;;;;;1.40;1.30;;;;;;;;;;5075677;28;20811;-63
2022/10/16 08:34:32;;;;;;;2.93;1.60;;;;;;;;;;5075627;28;20456;-63
2022/10/16 08:37:00;;;;;;;2.07;1.97;;;;;;;;;;5075499;28;20487;-63
2022/10/16 08:39:27;;;;;;;3.50;1.80;;;;;;;;;;5075718;28;20447;-63
2022/10/16 08:42:09;;;;;;;1.57;1.47;;;;;;;;;;5075165;28;20458;-63
2022/10/16 08:44:46;;;;;;;1.30;1.20;;;;;;;;;;5075417;28;20457;-63
2022/10/16 08:47:18;;;;;;;2.13;1.33;;;;;;;;;;5075152;28;20457;-63
2022/10/16 08:49:57;;;;;;;2.13;1.30;;;;;;;;;;5075213;28;20458;-63
2022/10/16 08:52:27;;;;;;;3.30;1.57;;;;;;;;;;5075090;28;20454;-63
2022/10/16 08:54:55;;;;;;;5.77;1.63;;;;;;;;;;5074936;28;20450;-63
2022/10/16 08:57:23;;;;;;;2.17;1.10;;;;;;;;;;5075126;28;20542;-63
2022/10/16 08:59:50;;;;;;;1.30;1.20;;;;;;;;;;5074968;28;20449;-63
2022/10/16 09:02:25;;;;;;;1.20;1.10;;;;;;;;;;5074833;28;20475;-63
2022/10/16 09:04:57;;;;;;;2.30;1.00;;;;;;;;;;5074740;28;20451;-63
2022/10/16 09:07:30;;;;;;;1.10;1.00;;;;;;;;;;5074583;28;20451;-63
2022/10/16 09:10:04;;;;;;;1.10;1.00;;;;;;;;;;5074385;28;20452;-63
2022/10/16 09:12:34;;;;;;;1.55;1.10;;;;;;;;;;5074758;28;20455;-63
2022/10/16 09:15:04;;;;;;;1.20;1.10;;;;;;;;;;5074717;28;20189;-63
2022/10/16 09:17:35;;;;;;;3.83;1.20;;;;;;;;;;5074375;28;20861;-63
2022/10/16 09:20:08;;;;;;;1.73;1.10;;;;;;;;;;5074674;28;20780;-63
2022/10/16 09:22:36;;;;;;;1.90;1.10;;;;;;;;;;5074467;28;20495;-63
2022/10/16 09:25:12;;;;;;;0.90;0.90;;;;;;;;;;5074386;28;20447;-63
2022/10/16 09:27:39;;;;;;;1.35;0.93;;;;;;;;;;5074163;28;21010;-63
2022/10/16 09:30:12;;;;;;;1.13;1.00;;;;;;;;;;5074143;28;20189;-63
2022/10/16 09:32:39;;;;;;;0.90;0.90;;;;;;;;;;5074365;28;20947;-63
2022/10/16 09:35:12;;;;;;;1.00;0.70;;;;;;;;;;5074265;28;20846;-63
2022/10/16 09:37:42;;;;;;;1.00;0.90;;;;;;;;;;5074237;28;20448;-63
2022/10/16 09:40:14;;;;;;;1.10;1.00;;;;;;;;;;5074025;28;20672;-63
2022/10/16 09:42:40;;;;;;;2.60;1.13;;;;;;;;;;5074358;28;20477;-63
2022/10/16 09:45:21;;;;;;;1.63;1.10;;;;;;;;;;5074099;28;20450;-63
2022/10/16 09:47:48;;;;;;;1.10;1.00;;;;;;;;;;5073888;28;20498;-63
2022/10/16 09:50:23;;;;;;;1.10;1.00;;;;;;;;;;5073998;28;20443;-63
2022/10/16 09:52:51;;;;;;;1.00;1.00;;;;;;;;;;5073773;28;20525;-63
2022/10/16 09:55:19;;;;;;;2.80;1.00;;;;;;;;;;5073713;28;20448;-63
2022/10/16 09:57:52;;;;;;;1.20;1.10;;;;;;;;;;5073915;28;20538;-63
2022/10/16 10:00:20;;;;;;;3.00;1.20;;;;;;;;;;5073810;28;20185;-63
2022/10/16 10:02:47;;;;;;;1.53;1.10;;;;;;;;;;5073680;28;20471;-63
2022/10/16 10:05:24;;;;;;;1.10;1.00;;;;;;;;;;5073565;28;20474;-63
2022/10/16 10:07:57;;;;;;;1.63;1.03;;;;;;;;;;5073524;28;20931;-63
2022/10/16 10:10:26;;;;;;;1.53;1.17;;;;;;;;;;5073687;28;20452;-63
2022/10/16 10:12:53;;;;;;;0.90;0.90;;;;;;;;;;5073513;28;20807;-63
2022/10/16 10:15:21;;;;;;;3.57;1.20;;;;;;;;;;5073535;28;20602;-63
2022/10/16 10:17:49;;;;;;;1.10;1.00;;;;;;;;;;5073369;28;20448;-63
2022/10/16 10:20:22;;;;;;;1.83;1.20;;;;;;;;;;5073096;28;20770;-63
2022/10/16 10:22:49;;;;;;;3.90;2.00;;;;;;;;;;5073013;28;20486;-63
2022/10/16 10:25:34;;;;;;;0.90;0.90;;;;;;;;;;5073159;28;20965;-63
2022/10/16 10:28:16;;;;;;;1.67;0.90;;;;;;;;;;5073137;28;20954;-63
2022/10/16 10:30:45;;;;;;;1.97;1.00;;;;;;;;;;5070368;28;20467;-63
2022/10/16 10:33:20;;;;;;;3.27;1.13;;;;;;;;;;5073264;28;20447;-63
2022/10/16 10:35:53;;;;;;;2.80;1.03;;;;;;;;;;5073147;28;20446;-63
2022/10/16 10:38:30;;;;;;;1.38;1.27;;;;;;;;;;5073116;28;20451;-63
2022/10/16 10:41:02;;;;;;;1.30;0.90;;;;;;;;;;5072976;28;20650;-63
2022/10/16 10:43:36;;;;;;;0.90;0.90;;;;;;;;;;5073216;28;20489;-63
2022/10/16 10:46:05;;;;;;;1.63;1.53;;;;;;;;;;5073006;28;20458;-63
2022/10/16 10:48:45;;;;;;;0.80;0.80;;;;;;;;;;5072790;28;20478;-63
2022/10/16 10:51:14;;;;;;;1.43;1.00;;;;;;;;;;5072933;28;20446;-63
2022/10/16 10:53:44;;;;;;;2.10;0.90;;;;;;;;;;5072799;28;20453;-63
2022/10/16 10:56:21;;;;;;;1.27;1.17;;;;;;;;;;5073043;28;20457;-64
2022/10/16 10:59:02;;;;;;;0.90;0.90;;;;;;;;;;5072975;28;20451;-63
2022/10/16 11:01:33;;;;;;;1.60;0.90;;;;;;;;;;5073385;28;20303;-63
2022/10/16 11:04:08;;;;;;;2.40;0.80;;;;;;;;;;5072641;28;20839;-64
2022/10/16 11:06:37;;;;;;;5.72;1.00;;;;;;;;;;5072918;28;20450;-64
2022/10/16 11:09:12;;;;;;;1.37;1.10;;;;;;;;;;5072816;28;20185;-63
2022/10/16 11:11:43;;;;;;;1.13;0.80;;;;;;;;;;5072780;28;20565;-63
2022/10/16 11:14:16;;;;;;;1.13;0.80;;;;;;;;;;5072693;28;20460;-63
2022/10/16 11:16:44;;;;;;;0.83;0.83;;;;;;;;;;5073016;28;20891;-63
2022/10/16 11:19:13;;;;;;;1.20;1.10;;;;;;;;;;5072583;28;20483;-63
2022/10/16 11:21:43;;;;;;;3.43;0.90;;;;;;;;;;5072727;28;20451;-63
2022/10/16 11:24:16;;;;;;;2.00;1.00;;;;;;;;;;5072482;28;20483;-63
2022/10/16 11:26:45;;;;;;;0.80;0.80;;;;;;;;;;5072522;28;20453;-63
2022/10/16 11:29:15;;;;;;;1.77;0.80;;;;;;;;;;5072714;28;20475;-63
2022/10/16 11:31:44;;;;;;;1.20;0.87;;;;;;;;;;5072923;28;20811;-63
2022/10/16 11:34:16;;;;;;;4.60;1.80;;;;;;;;;;5076437;28;21005;-63
2022/10/16 11:36:46;;;;;;;1.10;1.00;;;;;;;;;;5076526;28;20450;-63
2022/10/16 11:39:19;;;;;;;1.00;0.90;;;;;;;;;;5076353;28;20904;-63
2022/10/16 11:41:50;;;;;;;0.93;0.77;;;;;;;;;;5076582;28;20533;-63
2022/10/16 11:44:28;;;;;;;1.50;1.40;;;;;;;;;;5076460;28;20501;-63
2022/10/16 11:46:59;;;;;;;0.83;0.70;;;;;;;;;;5076258;28;21002;-63
2022/10/16 11:49:28;;;;;;;2.13;0.80;;;;;;;;;;5076016;28;21073;-63
2022/10/16 11:52:00;;;;;;;2.73;1.13;;;;;;;;;;5075868;28;20453;-63
2022/10/16 11:54:30;;;;;;;2.10;0.80;;;;;;;;;;5076163;28;20463;-63
2022/10/16 11:57:01;;;;;;;0.80;0.70;;;;;;;;;;5076063;28;20451;-63
2022/10/16 11:59:31;;;;;;;0.73;0.73;;;;;;;;;;5075958;28;20443;-63
2022/10/16 12:02:18;;;;;;;1.80;0.80;;;;;;;;;;5075952;28;20938;-63
2022/10/16 12:04:50;;;;;;;1.13;0.90;;;;;;;;;;5075725;28;20482;-64
2022/10/16 12:07:20;;;;;;;1.00;0.90;;;;;;;;;;5075921;28;20190;-63
2022/10/16 12:09:47;;;;;;;0.80;0.70;;;;;;;;;;5076015;28;20812;-63
2022/10/16 12:12:26;;;;;;;2.20;0.75;;;;;;;;;;5075753;28;20447;-63
2022/10/16 12:15:02;;;;;;;1.07;0.90;;;;;;;;;;5075519;28;20194;-63
2022/10/16 12:17:35;;;;;;;0.70;0.70;;;;;;;;;;5075850;28;20451;-64
2022/10/16 12:20:20;;;;;;;0.90;0.80;;;;;;;;;;5075759;28;20482;-63
2022/10/16 12:22:49;;;;;;;1.63;0.70;;;;;;;;;;5075606;28;20201;-63
2022/10/16 12:25:21;;;;;;;0.80;0.80;;;;;;;;;;5075296;28;20486;-63
2022/10/16 12:27:55;;;;;;;9.50;0.90;;;;;;;;;;5075640;28;20457;-63
2022/10/16 12:30:23;;;;;;;1.20;0.80;;;;;;;;;;5075639;28;20846;-63
2022/10/16 12:32:55;;;;;;;1.10;0.73;;;;;;;;;;5075410;28;20889;-63
2022/10/16 12:35:24;;;;;;;0.80;0.73;;;;;;;;;;5075220;28;20458;-63
2022/10/16 12:37:51;;;;;;;0.70;0.70;;;;;;;;;;5075421;28;20447;-64
2022/10/16 12:40:27;;;;;;;0.87;0.60;;;;;;;;;;5075374;28;20461;-64
2022/10/16 12:42:54;;;;;;;1.20;0.73;;;;;;;;;;5075272;28;20453;-63
2022/10/16 12:45:25;;;;;;;1.17;0.90;;;;;;;;;;5074117;28;20853;-63
2022/10/16 12:47:54;;;;;;;2.93;0.60;;;;;;;;;;5074938;28;20317;-64
2022/10/16 12:50:33;;;;;;;0.90;0.70;;;;;;;;;;5074977;28;20956;-63
2022/10/16 12:53:00;;;;;;;0.60;0.50;;;;;;;;;;5075184;28;20455;-63
2022/10/16 12:55:28;;;;;;;0.77;0.73;;;;;;;;;;5074903;28;20462;-63
2022/10/16 12:58:10;;;;;;;1.30;0.67;;;;;;;;;;5075002;28;20490;-63
2022/10/16 13:00:41;;;;;;;1.47;0.73;;;;;;;;;;5071975;28;20553;-63
2022/10/16 13:03:23;;;;;;;0.80;0.70;;;;;;;;;;5074880;28;20451;-64
2022/10/16 13:05:56;;;;;;;1.57;0.70;;;;;;;;;;5074890;28;20454;-63
2022/10/16 13:08:35;;;;;;;0.90;0.90;;;;;;;;;;5074817;28;20448;-63
2022/10/16 13:11:05;;;;;;;1.00;0.60;;;;;;;;;;5074550;28;20462;-62
2022/10/16 13:13:45;;;;;;;1.10;0.60;;;;;;;;;;5074840;28;20451;-63
2022/10/16 13:16:19;;;;;;;1.37;0.70;;;;;;;;;;5074488;28;20537;-62
2022/10/16 13:18:52;;;;;;;1.00;0.83;;;;;;;;;;5074589;28;20454;-62
2022/10/16 13:21:25;;;;;;;1.77;0.80;;;;;;;;;;5074428;28;20972;-62
2022/10/16 13:23:57;;;;;;;5.67;0.77;;;;;;;;;;5074602;28;20217;-62
2022/10/16 13:26:27;;;;;;;1.47;1.37;;;;;;;;;;5074542;28;20447;-62
2022/10/16 13:28:54;;;;;;;1.80;0.97;;;;;;;;;;5074352;28;20447;-62
2022/10/16 13:31:24;;;;;;;1.30;1.20;;;;;;;;;;5073939;28;20444;-62
2022/10/16 13:33:54;;;;;;;2.70;2.60;;;;;;;;;;5073839;28;20458;-62
2022/10/16 13:36:23;;;;;;;2.30;2.00;;;;;;;;;;5074193;28;20534;-62
2022/10/16 13:39:00;;;;;;;0.80;0.80;;;;;;;;;;5074227;28;20475;-62
2022/10/16 13:41:27;;;;;;;2.73;0.70;;;;;;;;;;5074020;28;20538;-62
2022/10/16 13:43:56;;;;;;;0.70;0.70;;;;;;;;;;5073960;28;20471;-62
2022/10/16 13:46:24;;;;;;;1.55;0.80;;;;;;;;;;5073888;28;20195;-62
2022/10/16 13:48:58;;;;;;;2.20;0.70;;;;;;;;;;5073674;28;20225;-63
2022/10/16 13:51:26;;;;;;;1.90;0.85;;;;;;;;;;5073964;28;20474;-62
2022/10/16 13:53:53;;;;;;;1.00;0.80;;;;;;;;;;5073919;28;20193;-62
2022/10/16 13:56:21;;;;;;;1.83;0.70;;;;;;;;;;5073741;28;20538;-62
2022/10/16 13:58:59;;;;;;;1.47;0.70;;;;;;;;;;5073583;28;20448;-62
2022/10/16 14:01:27;;;;;;;1.10;0.70;;;;;;;;;;5073885;28;20454;-63
2022/10/16 14:03:54;;;;;;;0.80;0.70;;;;;;;;;;5073757;28;20478;-62
2022/10/16 14:06:22;;;;;;;0.73;0.70;;;;;;;;;;5073531;28;20454;-62
2022/10/16 14:08:53;;;;;;;0.90;0.70;;;;;;;;;;5073507;28;20938;-62
2022/10/16 14:11:23;;;;;;;2.90;0.90;;;;;;;;;;5073413;28;20443;-62
2022/10/16 14:13:50;;;;;;;0.70;0.60;;;;;;;;;;5073700;28;20454;-62
2022/10/16 14:16:19;;;;;;;0.90;0.70;;;;;;;;;;5073464;28;20449;-62
2022/10/16 14:18:47;;;;;;;1.08;0.85;;;;;;;;;;5073462;28;20808;-62
2022/10/16 14:21:16;;;;;;;1.23;0.70;;;;;;;;;;5073367;28;20447;-62
2022/10/16 14:23:44;;;;;;;2.53;0.80;;;;;;;;;;5073122;28;20539;-63
2022/10/16 14:26:16;;;;;;;1.00;0.83;;;;;;;;;;5073164;28;20532;-62
2022/10/16 14:28:44;;;;;;;2.50;0.80;;;;;;;;;;5073265;28;20490;-62
2022/10/16 14:31:28;;;;;;;0.70;0.70;;;;;;;;;;5073486;28;20455;-63
2022/10/16 14:33:55;;;;;;;0.80;0.80;;;;;;;;;;5073170;28;20709;-62
2022/10/16 14:36:23;;;;;;;1.07;0.87;;;;;;;;;;5073049;28;20447;-62
2022/10/16 14:38:51;;;;;;;0.70;0.70;;;;;;;;;;5073183;28;20534;-62
2022/10/16 14:41:22;;;;;;;1.23;0.90;;;;;;;;;;5073136;28;20444;-63
2022/10/16 14:43:51;;;;;;;1.30;1.03;;;;;;;;;;5072897;28;20447;-63
2022/10/16 14:46:19;;;;;;;1.73;1.20;;;;;;;;;;5072955;28;20455;-63
2022/10/16 14:48:47;;;;;;;1.30;1.20;;;;;;;;;;5072720;28;20569;-63
2022/10/16 14:51:15;;;;;;;1.20;1.10;;;;;;;;;;5073157;28;20235;-63
2022/10/16 14:53:42;;;;;;;1.30;1.00;;;;;;;;;;5072756;28;20970;-63
2022/10/16 14:56:09;;;;;;;4.20;1.43;;;;;;;;;;5072915;28;20455;-63